Time;durP1;ratioP1;P1;durP2;ratioP2;P2;SDS_P1;SDS_P2;PMS_P1;PMS_P2;Temp;Humidity;BMP_temperature;BMP_pressure;BME280_temperature;BME280_humidity;BME280_pressure;Samples;Min_cycle;Max_cycle;Signal;HPM_P1;HPM_P2
2021/09/08 00:00:35;;;;;;;;;14.00;11.00;;;;;;;;5062959;28;45250;-81
2021/09/08 00:03:00;;;;;;;;;13.00;13.00;;;;;;;;5061606;28;47341;-80
2021/09/08 00:05:26;;;;;;;;;8.00;6.75;;;;;;;;5062843;28;45225;-80
2021/09/08 00:07:52;;;;;;;;;13.50;11.25;;;;;;;;5062988;28;45296;-81
2021/09/08 00:10:17;;;;;;;;;16.00;14.50;;;;;;;;5062992;28;45580;-81
2021/09/08 00:12:42;;;;;;;;;14.75;9.75;;;;;;;;5067331;28;45419;-81
2021/09/08 00:15:09;;;;;;;;;8.67;8.67;;;;;;;;5066789;28;45341;-81
2021/09/08 00:17:34;;;;;;;;;12.25;11.75;;;;;;;;5061585;28;45433;-81
2021/09/08 00:19:59;;;;;;;;;15.25;13.00;;;;;;;;5061290;28;45487;-81
2021/09/08 00:22:24;;;;;;;;;14.25;13.25;;;;;;;;5062798;28;45462;-81
2021/09/08 00:24:50;;;;;;;;;12.00;10.33;;;;;;;;5061263;28;45434;-81
2021/09/08 00:27:16;;;;;;;;;18.33;13.33;;;;;;;;5061465;28;45587;-81
2021/09/08 00:29:41;;;;;;;;;19.75;13.25;;;;;;;;5060990;28;45890;-81
2021/09/08 00:32:06;;;;;;;;;13.50;13.50;;;;;;;;5061276;28;47244;-81
2021/09/08 00:34:31;;;;;;;;;12.67;11.67;;;;;;;;5062271;28;45340;-81
2021/09/08 00:36:56;;;;;;;;;14.67;12.00;;;;;;;;5061219;28;45346;-81
2021/09/08 00:39:22;;;;;;;;;15.00;11.67;;;;;;;;5062177;28;45548;-81
2021/09/08 00:41:47;;;;;;;;;17.67;13.33;;;;;;;;5064515;28;45339;-81
2021/09/08 00:44:14;;;;;;;;;12.25;10.75;;;;;;;;5066320;28;45320;-82
2021/09/08 00:46:39;;;;;;;;;17.00;11.25;;;;;;;;5084717;28;45156;-81
2021/09/08 00:49:05;;;;;;;;;13.75;12.00;;;;;;;;5082719;28;45295;-81
2021/09/08 00:51:31;;;;;;;;;12.00;11.00;;;;;;;;5082440;28;46466;-81
2021/09/08 00:53:57;;;;;;;;;14.75;12.00;;;;;;;;5082526;28;45256;-81
2021/09/08 00:56:24;;;;;;;;;15.25;11.75;;;;;;;;5079981;28;45518;-81
2021/09/08 00:58:49;;;;;;;;;14.00;12.75;;;;;;;;5062267;28;45429;-81
2021/09/08 01:01:15;;;;;;;;;14.75;11.50;;;;;;;;5061903;28;45433;-81
2021/09/08 01:03:40;;;;;;;;;14.75;12.00;;;;;;;;5062126;28;45316;-81
2021/09/08 01:06:05;;;;;;;;;13.00;13.00;;;;;;;;5062279;28;45354;-81
2021/09/08 01:08:30;;;;;;;;;14.00;10.67;;;;;;;;5061505;28;45480;-81
2021/09/08 01:10:56;;;;;;;;;20.00;13.00;;;;;;;;5060912;28;47348;-81
2021/09/08 01:13:21;;;;;;;;;12.25;12.25;;;;;;;;5060684;28;45853;-81
2021/09/08 01:16:01;;;;;;;;;15.33;14.33;;;;;;;;5062096;28;45401;-81
2021/09/08 01:18:26;;;;;;;;;11.75;11.75;;;;;;;;5061691;28;45706;-81
2021/09/08 01:20:52;;;;;;;;;14.75;11.75;;;;;;;;5066219;28;46073;-81
2021/09/08 01:23:17;;;;;;;;;15.00;14.00;;;;;;;;5082402;28;45462;-81
2021/09/08 01:25:42;;;;;;;;;14.33;12.33;;;;;;;;5063750;28;45512;-81
2021/09/08 01:28:07;;;;;;;;;15.00;13.00;;;;;;;;5074769;28;45412;-81
2021/09/08 01:30:33;;;;;;;;;10.00;9.00;;;;;;;;5088989;28;45353;-80
2021/09/08 01:33:00;;;;;;;;;13.00;12.00;;;;;;;;5101520;28;45412;-80
2021/09/08 01:35:25;;;;;;;;;12.00;11.50;;;;;;;;5094008;28;45278;-81
2021/09/08 01:37:50;;;;;;;;;14.75;12.00;;;;;;;;5080963;28;45374;-81
2021/09/08 01:40:18;;;;;;;;;12.50;11.00;;;;;;;;5063716;28;45341;-81
2021/09/08 01:42:43;;;;;;;;;13.25;12.50;;;;;;;;5061835;28;45476;-81
2021/09/08 01:45:13;;;;;;;;;13.00;12.00;;;;;;;;5076462;28;45411;-81
2021/09/08 01:47:38;;;;;;;;;12.50;12.50;;;;;;;;5068257;28;45362;-81
2021/09/08 01:50:03;;;;;;;;;17.50;13.25;;;;;;;;5061138;28;45402;-81
2021/09/08 01:52:29;;;;;;;;;16.25;13.75;;;;;;;;5061524;28;45337;-81
2021/09/08 01:54:54;;;;;;;;;13.33;13.00;;;;;;;;5061326;28;45347;-81
2021/09/08 01:57:19;;;;;;;;;15.00;14.67;;;;;;;;5066853;28;45367;-81
2021/09/08 01:59:44;;;;;;;;;12.00;12.00;;;;;;;;5060891;28;45616;-81
2021/09/08 02:02:09;;;;;;;;;13.67;12.00;;;;;;;;5061287;28;45429;-81
2021/09/08 02:04:35;;;;;;;;;15.50;11.50;;;;;;;;5060989;28;45420;-81
2021/09/08 02:07:00;;;;;;;;;14.00;12.00;;;;;;;;5060928;28;45476;-81
2021/09/08 02:09:25;;;;;;;;;14.00;13.00;;;;;;;;5060778;28;45302;-80
2021/09/08 02:11:50;;;;;;;;;14.67;14.67;;;;;;;;5061061;28;45408;-80
2021/09/08 02:14:15;;;;;;;;;14.33;11.33;;;;;;;;5074065;28;45318;-81
2021/09/08 02:16:41;;;;;;;;;13.67;12.33;;;;;;;;5063544;28;45389;-81
2021/09/08 02:19:06;;;;;;;;;13.67;12.67;;;;;;;;5061222;28;45429;-81
2021/09/08 02:21:31;;;;;;;;;14.67;14.00;;;;;;;;5061033;28;45334;-81
2021/09/08 02:23:56;;;;;;;;;15.00;12.33;;;;;;;;5060803;28;45382;-81
2021/09/08 02:26:22;;;;;;;;;15.33;13.67;;;;;;;;5069228;28;45569;-81
2021/09/08 02:28:48;;;;;;;;;13.50;13.00;;;;;;;;5080883;28;46474;-81
2021/09/08 02:31:13;;;;;;;;;16.25;14.00;;;;;;;;5081073;28;45597;-81
2021/09/08 02:33:38;;;;;;;;;18.33;14.00;;;;;;;;5080886;28;45176;-81
2021/09/08 02:36:04;;;;;;;;;13.50;13.00;;;;;;;;5080959;28;45592;-82
2021/09/08 02:38:30;;;;;;;;;17.25;14.25;;;;;;;;5080579;28;46600;-81
2021/09/08 02:40:56;;;;;;;;;19.25;15.25;;;;;;;;5081000;28;45457;-81
2021/09/08 02:43:21;;;;;;;;;14.00;13.50;;;;;;;;5080932;28;45215;-81
2021/09/08 02:45:46;;;;;;;;;13.33;12.33;;;;;;;;5075982;28;45501;-81
2021/09/08 02:48:12;;;;;;;;;16.67;13.67;;;;;;;;5063036;28;46054;-81
2021/09/08 02:50:37;;;;;;;;;16.33;14.33;;;;;;;;5060453;28;45190;-81
2021/09/08 02:53:02;;;;;;;;;15.00;12.25;;;;;;;;5060355;28;45355;-81
2021/09/08 02:55:28;;;;;;;;;13.25;12.25;;;;;;;;5062104;28;45430;-81
2021/09/08 02:57:53;;;;;;;;;17.67;12.00;;;;;;;;5064427;27;46456;-81
2021/09/08 03:00:18;;;;;;;;;13.00;12.00;;;;;;;;5070038;28;45409;-81
2021/09/08 03:02:44;;;;;;;;;14.00;13.00;;;;;;;;5064376;28;45425;-81
2021/09/08 03:05:09;;;;;;;;;15.25;11.25;;;;;;;;5062343;28;45382;-81
2021/09/08 03:07:34;;;;;;;;;15.25;13.25;;;;;;;;5062610;28;46259;-81
2021/09/08 03:10:00;;;;;;;;;17.00;14.67;;;;;;;;5062236;28;45388;-81
2021/09/08 03:12:25;;;;;;;;;21.00;14.50;;;;;;;;5060068;28;45374;-81
2021/09/08 03:14:50;;;;;;;;;15.00;13.00;;;;;;;;5058912;28;45517;-81
2021/09/08 03:17:15;;;;;;;;;15.50;12.00;;;;;;;;5058293;28;48268;-81
2021/09/08 03:19:41;;;;;;;;;14.75;12.75;;;;;;;;5060159;28;45425;-81
2021/09/08 03:22:06;;;;;;;;;16.00;14.00;;;;;;;;5059859;28;45437;-81
2021/09/08 03:24:31;;;;;;;;;17.00;14.33;;;;;;;;5058874;28;46525;-81
2021/09/08 03:26:56;;;;;;;;;15.00;13.00;;;;;;;;5073427;28;46357;-81
2021/09/08 03:29:22;;;;;;;;;16.00;15.00;;;;;;;;5078752;28;45320;-81
2021/09/08 03:31:47;;;;;;;;;19.33;14.00;;;;;;;;5083967;28;45295;-81
2021/09/08 03:34:12;;;;;;;;;13.25;13.25;;;;;;;;5083558;28;45424;-80
2021/09/08 03:36:37;;;;;;;;;13.00;12.75;;;;;;;;5083758;28;46422;-81
2021/09/08 03:39:03;;;;;;;;;14.25;13.75;;;;;;;;5083677;28;45496;-80
2021/09/08 03:41:28;;;;;;;;;14.75;14.00;;;;;;;;5084052;28;45203;-81
2021/09/08 03:43:53;;;;;;;;;15.50;14.50;;;;;;;;5082190;28;45578;-81
2021/09/08 03:46:19;;;;;;;;;16.00;15.50;;;;;;;;5072370;28;45719;-81
2021/09/08 03:48:44;;;;;;;;;15.00;14.00;;;;;;;;5069741;28;45359;-81
2021/09/08 03:51:10;;;;;;;;;19.00;15.67;;;;;;;;5073581;28;45181;-81
2021/09/08 03:53:36;;;;;;;;;15.50;14.00;;;;;;;;5065264;28;45403;-81
2021/09/08 03:56:01;;;;;;;;;16.75;14.00;;;;;;;;5071430;28;45223;-81
2021/09/08 03:58:26;;;;;;;;;11.50;11.50;;;;;;;;5066956;28;45382;-81
2021/09/08 04:00:51;;;;;;;;;15.00;13.67;;;;;;;;5074271;28;45191;-81
2021/09/08 04:03:17;;;;;;;;;15.00;15.00;;;;;;;;5073697;28;45180;-81
2021/09/08 04:05:42;;;;;;;;;13.67;12.33;;;;;;;;5063560;28;45242;-81
2021/09/08 04:08:07;;;;;;;;;22.25;15.75;;;;;;;;5062897;28;45244;-81
2021/09/08 04:10:32;;;;;;;;;17.67;15.00;;;;;;;;5062153;28;45411;-81
2021/09/08 04:12:57;;;;;;;;;18.75;14.25;;;;;;;;5065967;28;45447;-81
2021/09/08 04:15:23;;;;;;;;;18.67;17.00;;;;;;;;5061514;28;47095;-81
2021/09/08 04:17:48;;;;;;;;;17.50;14.75;;;;;;;;5061239;28;45256;-81
2021/09/08 04:20:13;;;;;;;;;21.00;17.00;;;;;;;;5063164;28;45523;-81
2021/09/08 04:22:39;;;;;;;;;17.75;14.50;;;;;;;;5062532;28;45409;-81
2021/09/08 04:25:04;;;;;;;;;17.00;15.00;;;;;;;;5061412;28;48457;-81
2021/09/08 04:27:29;;;;;;;;;15.50;14.00;;;;;;;;5065225;27;45451;-81
2021/09/08 04:29:54;;;;;;;;;19.00;15.67;;;;;;;;5083261;28;45403;-81
2021/09/08 04:32:20;;;;;;;;;16.50;14.75;;;;;;;;5082668;28;45456;-81
2021/09/08 04:34:45;;;;;;;;;19.67;16.33;;;;;;;;5083987;28;45338;-81
2021/09/08 04:37:10;;;;;;;;;20.50;17.50;;;;;;;;5086441;28;45404;-81
2021/09/08 04:39:35;;;;;;;;;18.00;16.50;;;;;;;;5086846;28;45381;-81
2021/09/08 04:42:01;;;;;;;;;19.50;15.50;;;;;;;;5081717;27;45301;-81
2021/09/08 04:44:26;;;;;;;;;16.67;14.00;;;;;;;;5064911;28;46486;-81
2021/09/08 04:46:51;;;;;;;;;21.33;18.67;;;;;;;;5062622;28;45379;-81
2021/09/08 04:49:16;;;;;;;;;16.00;15.00;;;;;;;;5062313;28;45259;-81
2021/09/08 04:51:42;;;;;;;;;17.00;15.00;;;;;;;;5079560;27;45636;-81
2021/09/08 04:54:07;;;;;;;;;20.00;17.33;;;;;;;;5077817;27;45843;-81
2021/09/08 04:56:32;;;;;;;;;16.00;15.00;;;;;;;;5090667;27;45340;-81
2021/09/08 04:58:57;;;;;;;;;19.00;15.67;;;;;;;;5073737;27;46543;-81
2021/09/08 05:01:22;;;;;;;;;21.00;16.00;;;;;;;;5074998;27;45148;-81
2021/09/08 05:03:48;;;;;;;;;9.33;8.00;;;;;;;;5063062;28;45414;-80
2021/09/08 05:06:13;;;;;;;;;23.00;15.00;;;;;;;;5068280;28;45269;-80
2021/09/08 05:08:38;;;;;;;;;19.33;18.00;;;;;;;;5062069;28;45219;-80
2021/09/08 05:11:04;;;;;;;;;17.67;17.33;;;;;;;;5062084;28;45377;-81
2021/09/08 05:13:29;;;;;;;;;16.25;14.75;;;;;;;;5072609;28;46036;-81
2021/09/08 05:15:55;;;;;;;;;14.50;14.00;;;;;;;;5063616;27;45274;-80
2021/09/08 05:18:20;;;;;;;;;17.33;15.33;;;;;;;;5067545;28;45355;-81
2021/09/08 05:20:45;;;;;;;;;20.00;15.33;;;;;;;;5063122;28;45320;-81
2021/09/08 05:23:10;;;;;;;;;15.67;13.33;;;;;;;;5065880;28;45287;-81
2021/09/08 05:25:36;;;;;;;;;18.00;16.00;;;;;;;;5071608;28;45416;-80
2021/09/08 05:28:01;;;;;;;;;21.67;17.33;;;;;;;;5073134;28;45412;-81
2021/09/08 05:30:26;;;;;;;;;17.00;16.00;;;;;;;;5081254;28;46611;-81
2021/09/08 05:32:51;;;;;;;;;20.33;17.00;;;;;;;;5077668;28;45557;-81
2021/09/08 05:35:16;;;;;;;;;18.67;15.33;;;;;;;;5061564;28;45303;-81
2021/09/08 05:37:42;;;;;;;;;22.00;16.33;;;;;;;;5061526;28;45393;-82
2021/09/08 05:40:10;;;;;;;;;17.25;16.00;;;;;;;;5061572;28;45233;-84
2021/09/08 05:42:36;;;;;;;;;20.25;17.50;;;;;;;;5061562;28;45428;-84
2021/09/08 05:45:02;;;;;;;;;19.75;16.50;;;;;;;;5059752;28;46027;-81
2021/09/08 05:47:27;;;;;;;;;20.75;16.25;;;;;;;;5059326;28;45402;-81
2021/09/08 05:49:53;;;;;;;;;20.33;18.67;;;;;;;;5061279;28;45357;-80
2021/09/08 05:52:18;;;;;;;;;19.75;15.50;;;;;;;;5069227;27;45311;-80
2021/09/08 05:54:43;;;;;;;;;20.00;13.33;;;;;;;;5060181;28;45195;-81
2021/09/08 05:57:08;;;;;;;;;22.00;15.00;;;;;;;;5072542;28;45528;-80
2021/09/08 05:59:33;;;;;;;;;18.67;15.67;;;;;;;;5061479;28;45219;-80
2021/09/08 06:01:59;;;;;;;;;19.00;16.00;;;;;;;;5060969;28;46114;-80
2021/09/08 06:04:25;;;;;;;;;20.00;17.25;;;;;;;;5063834;28;45459;-81
2021/09/08 06:06:50;;;;;;;;;20.75;17.75;;;;;;;;5062312;28;45200;-82
2021/09/08 06:09:15;;;;;;;;;19.00;18.00;;;;;;;;5060738;28;45374;-80
2021/09/08 06:11:40;;;;;;;;;21.75;15.75;;;;;;;;5061818;28;46382;-79
2021/09/08 06:14:07;;;;;;;;;25.67;20.00;;;;;;;;5066150;28;45400;-80
2021/09/08 06:16:32;;;;;;;;;20.25;17.50;;;;;;;;5060253;28;45331;-80
2021/09/08 06:18:57;;;;;;;;;21.50;17.75;;;;;;;;5070175;28;45466;-80
2021/09/08 06:21:22;;;;;;;;;17.33;16.33;;;;;;;;5063603;28;46212;-80
2021/09/08 06:23:48;;;;;;;;;16.33;14.33;;;;;;;;5060639;28;45362;-80
2021/09/08 06:26:13;;;;;;;;;18.25;18.25;;;;;;;;5059631;28;45411;-81
2021/09/08 06:28:38;;;;;;;;;25.33;17.00;;;;;;;;5059528;28;45405;-80
2021/09/08 06:31:04;;;;;;;;;22.00;17.33;;;;;;;;5061310;28;45417;-79
2021/09/08 06:33:29;;;;;;;;;24.33;20.00;;;;;;;;5064198;28;45413;-80
2021/09/08 06:35:54;;;;;;;;;22.67;16.00;;;;;;;;5074413;28;45610;-79
2021/09/08 06:38:19;;;;;;;;;15.67;15.00;;;;;;;;5085186;28;45281;-80
2021/09/08 06:40:44;;;;;;;;;21.00;18.33;;;;;;;;5075575;28;45558;-81
2021/09/08 06:43:10;;;;;;;;;23.00;19.33;;;;;;;;5059085;28;46049;-81
2021/09/08 06:45:35;;;;;;;;;23.25;18.50;;;;;;;;5061024;28;45484;-80
2021/09/08 06:48:00;;;;;;;;;19.50;17.00;;;;;;;;5078489;28;45432;-80
2021/09/08 06:50:26;;;;;;;;;23.50;19.75;;;;;;;;5065079;28;45291;-81
2021/09/08 06:52:51;;;;;;;;;23.00;21.50;;;;;;;;5079736;28;45241;-82
2021/09/08 06:55:16;;;;;;;;;23.00;16.75;;;;;;;;5065173;28;45310;-84
2021/09/08 06:57:42;;;;;;;;;19.75;18.50;;;;;;;;5079716;27;45436;-84
2021/09/08 07:00:07;;;;;;;;;23.00;19.00;;;;;;;;5076317;28;45487;-81
2021/09/08 07:02:32;;;;;;;;;21.75;19.25;;;;;;;;5061230;28;46073;-85
2021/09/08 07:04:58;;;;;;;;;18.67;15.67;;;;;;;;5060788;28;45346;-85
2021/09/08 07:07:23;;;;;;;;;18.75;16.25;;;;;;;;5066935;28;46779;-86
2021/09/08 07:09:48;;;;;;;;;21.00;17.33;;;;;;;;5069497;28;45501;-84
2021/09/08 07:12:13;;;;;;;;;23.50;17.50;;;;;;;;5079034;28;45440;-85
2021/09/08 07:14:39;;;;;;;;;19.75;17.00;;;;;;;;5059100;28;45434;-85
2021/09/08 07:17:05;;;;;;;;;18.75;18.75;;;;;;;;5059947;28;45242;-85
2021/09/08 07:19:30;;;;;;;;;25.00;18.00;;;;;;;;5058432;28;47281;-85
2021/09/08 07:21:55;;;;;;;;;18.00;18.00;;;;;;;;5059894;28;45255;-85
2021/09/08 07:24:21;;;;;;;;;20.00;19.33;;;;;;;;5058693;28;45354;-84
2021/09/08 07:26:46;;;;;;;;;20.00;19.25;;;;;;;;5059961;28;45222;-85
2021/09/08 07:29:11;;;;;;;;;18.25;18.25;;;;;;;;5060026;28;45296;-85
2021/09/08 07:31:37;;;;;;;;;21.50;19.75;;;;;;;;5059977;28;45262;-85
2021/09/08 07:34:02;;;;;;;;;22.25;19.25;;;;;;;;5059884;28;45122;-85
2021/09/08 07:36:27;;;;;;;;;21.75;20.50;;;;;;;;5060043;28;45536;-85
2021/09/08 07:38:53;;;;;;;;;20.25;17.50;;;;;;;;5058502;28;47107;-85
2021/09/08 07:41:19;;;;;;;;;23.50;19.00;;;;;;;;5062107;28;46126;-85
2021/09/08 07:43:44;;;;;;;;;19.25;15.50;;;;;;;;5063659;28;45474;-85
2021/09/08 07:46:11;;;;;;;;;20.50;19.00;;;;;;;;5060628;28;45318;-85
2021/09/08 07:48:36;;;;;;;;;18.00;18.00;;;;;;;;5059562;28;45417;-85
2021/09/08 07:51:01;;;;;;;;;19.75;17.25;;;;;;;;5066004;28;45960;-85
2021/09/08 07:53:27;;;;;;;;;17.00;16.67;;;;;;;;5078610;28;45441;-85
2021/09/08 07:55:52;;;;;;;;;18.00;15.75;;;;;;;;5079888;28;45421;-85
2021/09/08 07:58:17;;;;;;;;;18.33;16.33;;;;;;;;5065896;27;45418;-85
2021/09/08 08:00:42;;;;;;;;;21.75;19.50;;;;;;;;5063143;27;45993;-85
2021/09/08 08:03:07;;;;;;;;;20.67;17.67;;;;;;;;5058557;28;45468;-86
2021/09/08 08:05:33;;;;;;;;;20.00;19.25;;;;;;;;5059451;28;45141;-86
2021/09/08 08:07:59;;;;;;;;;18.75;16.50;;;;;;;;5059195;28;45329;-86
2021/09/08 08:10:24;;;;;;;;;16.50;16.50;;;;;;;;5059498;28;45227;-86
2021/09/08 08:12:50;;;;;;;;;15.50;15.50;;;;;;;;5064898;28;45498;-86
2021/09/08 08:15:17;;;;;;;;;16.00;15.00;;;;;;;;5062964;28;46078;-86
2021/09/08 08:17:42;;;;;;;;;18.00;17.00;;;;;;;;5060101;28;47333;-86
2021/09/08 08:20:08;;;;;;;;;18.00;15.25;;;;;;;;5061672;28;45189;-86
2021/09/08 08:22:34;;;;;;;;;17.50;16.25;;;;;;;;5063000;28;46076;-86
2021/09/08 08:25:00;;;;;;;;;17.75;14.75;;;;;;;;5062834;28;45342;-86
2021/09/08 08:27:25;;;;;;;;;13.00;12.75;;;;;;;;5066473;28;45326;-86
2021/09/08 08:29:50;;;;;;;;;15.00;15.00;;;;;;;;5066794;28;45385;-86
2021/09/08 08:32:15;;;;;;;;;15.00;14.00;;;;;;;;5063990;28;45619;-86
2021/09/08 08:34:41;;;;;;;;;16.33;16.33;;;;;;;;5062693;28;45367;-86
2021/09/08 08:37:06;;;;;;;;;14.67;14.67;;;;;;;;5062366;28;45296;-86
2021/09/08 08:39:31;;;;;;;;;14.33;12.67;;;;;;;;5062641;28;45424;-86
2021/09/08 08:41:57;;;;;;;;;15.75;13.75;;;;;;;;5063562;28;45512;-86
2021/09/08 08:44:23;;;;;;;;;15.25;14.25;;;;;;;;5076366;28;45417;-86
2021/09/08 08:46:53;;;;;;;;;18.75;17.50;;;;;;;;5061076;28;48295;-86
2021/09/08 08:49:20;;;;;;;;;17.00;15.00;;;;;;;;5074688;28;45397;-86
2021/09/08 08:51:45;;;;;;;;;17.50;14.50;;;;;;;;5076027;28;45387;-86
2021/09/08 08:54:10;;;;;;;;;18.33;15.33;;;;;;;;5082708;28;45428;-86
2021/09/08 08:56:35;;;;;;;;;15.50;14.50;;;;;;;;5078504;28;45393;-90
2021/09/08 08:59:01;;;;;;;;;17.33;16.67;;;;;;;;5068995;28;45621;-86
2021/09/08 09:01:26;;;;;;;;;16.50;14.50;;;;;;;;5078940;28;45354;-86
2021/09/08 09:03:58;;;;;;;;;14.50;13.00;;;;;;;;5073159;28;45505;-86
2021/09/08 09:06:23;;;;;;;;;20.25;16.75;;;;;;;;5067025;28;47204;-86
2021/09/08 09:08:56;;;;;;;;;18.25;18.25;;;;;;;;5062043;28;46190;-85
2021/09/08 09:11:22;;;;;;;;;20.25;17.75;;;;;;;;5088374;28;45306;-86
2021/09/08 09:13:47;;;;;;;;;18.00;17.25;;;;;;;;5082985;28;45362;-86
2021/09/08 09:16:12;;;;;;;;;19.67;18.33;;;;;;;;5093155;28;45064;-84
2021/09/08 09:18:39;;;;;;;;;21.33;19.00;;;;;;;;5087040;28;45594;-84
2021/09/08 09:21:12;;;;;;;;;18.00;16.50;;;;;;;;5081072;28;45354;-84
2021/09/08 09:23:57;;;;;;;;;17.50;16.25;;;;;;;;5079079;28;45647;-83
2021/09/08 09:26:23;;;;;;;;;18.25;16.50;;;;;;;;5080391;27;45821;-84
2021/09/08 09:28:49;;;;;;;;;17.50;16.50;;;;;;;;5068023;28;45990;-86
2021/09/08 09:31:15;;;;;;;;;19.50;17.50;;;;;;;;5070422;27;45501;-86
2021/09/08 09:33:42;;;;;;;;;17.50;15.50;;;;;;;;5074322;27;45609;-86
2021/09/08 09:36:15;;;;;;;;;17.25;15.25;;;;;;;;5074254;28;46147;-86
2021/09/08 09:38:42;;;;;;;;;17.25;17.00;;;;;;;;5077179;28;45497;-85
2021/09/08 09:41:09;;;;;;;;;17.50;15.75;;;;;;;;5073159;28;45610;-85
2021/09/08 09:43:39;;;;;;;;;18.25;17.00;;;;;;;;5074609;28;45586;-83
2021/09/08 09:46:08;;;;;;;;;15.25;15.00;;;;;;;;5075643;28;46374;-83
2021/09/08 09:48:33;;;;;;;;;15.00;14.50;;;;;;;;5069906;28;45897;-83
2021/09/08 09:51:01;;;;;;;;;16.75;13.75;;;;;;;;5074507;28;45485;-83
2021/09/08 09:53:28;;;;;;;;;18.00;17.00;;;;;;;;5069687;28;45442;-83
2021/09/08 09:55:53;;;;;;;;;17.00;17.00;;;;;;;;5072314;28;45671;-84
2021/09/08 09:58:19;;;;;;;;;18.00;17.00;;;;;;;;5072682;28;45462;-83
2021/09/08 10:00:44;;;;;;;;;18.00;15.25;;;;;;;;5076261;28;45416;-83
2021/09/08 10:03:10;;;;;;;;;17.50;17.50;;;;;;;;5074635;28;45111;-83
2021/09/08 10:05:36;;;;;;;;;18.25;16.50;;;;;;;;5072143;28;45373;-83
2021/09/08 10:08:01;;;;;;;;;15.50;15.50;;;;;;;;5076130;28;45360;-82
2021/09/08 10:10:31;;;;;;;;;17.25;15.75;;;;;;;;5077400;28;45326;-84
2021/09/08 10:13:03;;;;;;;;;18.00;17.50;;;;;;;;5077356;28;45745;-85
2021/09/08 10:15:30;;;;;;;;;16.25;14.75;;;;;;;;5074358;27;45455;-83
2021/09/08 10:18:03;;;;;;;;;14.00;13.50;;;;;;;;5074092;28;45317;-83
2021/09/08 10:20:29;;;;;;;;;18.00;18.00;;;;;;;;5069783;28;45255;-83
2021/09/08 10:22:54;;;;;;;;;18.67;18.00;;;;;;;;5073571;28;45533;-83
2021/09/08 10:25:20;;;;;;;;;14.00;14.00;;;;;;;;5076577;28;46202;-85
2021/09/08 10:27:51;;;;;;;;;15.00;13.50;;;;;;;;5073484;28;45508;-84
2021/09/08 10:30:16;;;;;;;;;18.75;15.75;;;;;;;;5073325;28;45448;-84
2021/09/08 10:32:42;;;;;;;;;18.25;16.75;;;;;;;;5075755;28;45405;-84
2021/09/08 10:35:12;;;;;;;;;19.00;17.25;;;;;;;;5072294;28;46312;-84
2021/09/08 10:37:37;;;;;;;;;16.00;16.00;;;;;;;;5075593;28;45581;-84
2021/09/08 10:40:05;;;;;;;;;14.50;14.00;;;;;;;;5063873;28;45393;-83
2021/09/08 10:42:47;;;;;;;;;17.50;17.25;;;;;;;;5061948;28;45467;-84
2021/09/08 10:45:25;;;;;;;;;15.75;15.50;;;;;;;;5068499;27;45969;-84
2021/09/08 10:47:51;;;;;;;;;16.25;14.50;;;;;;;;5064407;28;45631;-84
2021/09/08 10:50:36;;;;;;;;;16.00;16.00;;;;;;;;5072956;28;45374;-84
2021/09/08 10:53:24;;;;;;;;;17.00;17.00;;;;;;;;5058854;28;45307;-84
2021/09/08 10:55:50;;;;;;;;;11.50;11.50;;;;;;;;5063385;28;45324;-84
2021/09/08 10:58:15;;;;;;;;;18.00;16.75;;;;;;;;5067249;27;45422;-84
2021/09/08 11:00:42;;;;;;;;;17.75;17.25;;;;;;;;5069977;28;45244;-85
2021/09/08 11:03:09;;;;;;;;;18.00;18.00;;;;;;;;5060042;28;45340;-84
2021/09/08 11:05:47;;;;;;;;;19.00;18.25;;;;;;;;5058917;28;47933;-84
2021/09/08 11:08:39;;;;;;;;;17.75;16.50;;;;;;;;5060007;28;45602;-84
2021/09/08 11:11:11;;;;;;;;;19.00;17.50;;;;;;;;5055582;28;45382;-84
2021/09/08 11:13:38;;;;;;;;;18.25;17.00;;;;;;;;5063107;28;45260;-84
2021/09/08 11:16:17;;;;;;;;;18.00;18.00;;;;;;;;5058522;28;46537;-84
2021/09/08 11:18:42;;;;;;;;;20.75;20.75;;;;;;;;5059945;28;45421;-84
2021/09/08 11:21:07;;;;;;;;;22.00;19.00;;;;;;;;5072401;28;45379;-84
2021/09/08 11:23:33;;;;;;;;;19.00;17.67;;;;;;;;5059972;28;45620;-83
2021/09/08 11:26:09;;;;;;;;;17.75;17.75;;;;;;;;5059951;28;45912;-84
2021/09/08 11:28:34;;;;;;;;;18.75;17.00;;;;;;;;5061867;28;45188;-84
2021/09/08 11:31:08;;;;;;;;;21.25;17.75;;;;;;;;5074148;28;45462;-85
2021/09/08 11:33:35;;;;;;;;;18.75;18.75;;;;;;;;5064446;28;45279;-84
2021/09/08 11:36:00;;;;;;;;;16.00;15.00;;;;;;;;5062917;28;45275;-85
2021/09/08 11:38:27;;;;;;;;;18.50;17.50;;;;;;;;5074162;28;45251;-83
2021/09/08 11:40:53;;;;;;;;;17.75;16.25;;;;;;;;5082073;28;44755;-84
2021/09/08 11:43:38;;;;;;;;;17.00;15.75;;;;;;;;5065395;28;45379;-84
2021/09/08 11:46:09;;;;;;;;;15.50;15.50;;;;;;;;5059084;28;47224;-84
2021/09/08 11:48:34;;;;;;;;;18.25;17.00;;;;;;;;5060535;28;45449;-84
2021/09/08 11:51:02;;;;;;;;;20.33;17.67;;;;;;;;5069189;27;45337;-84
2021/09/08 11:53:28;;;;;;;;;16.75;16.50;;;;;;;;5084330;28;45665;-84
2021/09/08 11:56:03;;;;;;;;;19.75;16.50;;;;;;;;5084289;28;45275;-88
2021/09/08 11:58:28;;;;;;;;;17.25;17.25;;;;;;;;5071575;27;45687;-85
2021/09/08 12:01:03;;;;;;;;;16.67;15.00;;;;;;;;5076310;28;45486;-84
2021/09/08 12:03:30;;;;;;;;;19.00;17.25;;;;;;;;5071514;28;45758;-82
2021/09/08 12:06:12;;;;;;;;;17.00;14.50;;;;;;;;5071157;28;46534;-83
2021/09/08 12:08:46;;;;;;;;;19.25;16.00;;;;;;;;5067710;28;45473;-84
2021/09/08 12:11:12;;;;;;;;;18.25;16.00;;;;;;;;5066420;28;45465;-83
2021/09/08 12:13:37;;;;;;;;;17.25;16.25;;;;;;;;5072303;28;45455;-83
2021/09/08 12:16:02;;;;;;;;;17.50;15.50;;;;;;;;5068862;28;46436;-82
2021/09/08 12:18:28;;;;;;;;;15.25;15.25;;;;;;;;5076586;27;45505;-83
2021/09/08 12:21:13;;;;;;;;;14.25;14.25;;;;;;;;5070383;28;45351;-83
2021/09/08 12:23:38;;;;;;;;;15.00;14.00;;;;;;;;5069564;28;45995;-82
2021/09/08 12:26:08;;;;;;;;;15.25;15.00;;;;;;;;5070417;28;48335;-82
2021/09/08 12:28:33;;;;;;;;;16.50;15.00;;;;;;;;5069666;28;45398;-81
2021/09/08 12:31:18;;;;;;;;;17.75;17.00;;;;;;;;5075291;28;45358;-82
2021/09/08 12:33:52;;;;;;;;;17.25;16.25;;;;;;;;5071583;28;45425;-82
2021/09/08 12:36:17;;;;;;;;;13.75;13.50;;;;;;;;5071049;28;45560;-82
2021/09/08 12:38:43;;;;;;;;;15.25;13.75;;;;;;;;5068923;28;45397;-82
2021/09/08 12:41:16;;;;;;;;;17.00;14.50;;;;;;;;5071057;28;45288;-82
2021/09/08 12:44:02;;;;;;;;;15.75;14.00;;;;;;;;5074384;28;45404;-83
2021/09/08 12:46:41;;;;;;;;;16.00;14.00;;;;;;;;5074408;28;46404;-82
2021/09/08 12:49:07;;;;;;;;;18.25;17.50;;;;;;;;5071956;28;44724;-81
2021/09/08 12:51:35;;;;;;;;;17.50;17.50;;;;;;;;5068369;28;45409;-82
2021/09/08 12:54:00;;;;;;;;;15.25;14.50;;;;;;;;5072136;28;45533;-83
2021/09/08 12:56:26;;;;;;;;;16.50;13.75;;;;;;;;5072410;28;47003;-82
2021/09/08 12:58:51;;;;;;;;;16.00;15.00;;;;;;;;5067755;28;45425;-82
2021/09/08 13:01:21;;;;;;;;;18.75;17.25;;;;;;;;5071032;28;45501;-82
2021/09/08 13:03:46;;;;;;;;;16.50;16.00;;;;;;;;5072037;28;45308;-83
2021/09/08 13:06:11;;;;;;;;;17.50;17.00;;;;;;;;5067336;28;47988;-82
2021/09/08 13:08:36;;;;;;;;;19.33;17.00;;;;;;;;5068380;28;45251;-83
2021/09/08 13:11:02;;;;;;;;;15.75;15.00;;;;;;;;5069564;28;45646;-82
2021/09/08 13:13:27;;;;;;;;;19.00;18.00;;;;;;;;5074410;28;45371;-83
2021/09/08 13:15:52;;;;;;;;;15.00;15.00;;;;;;;;5071495;28;47815;-82
2021/09/08 13:18:18;;;;;;;;;15.50;15.50;;;;;;;;5069300;28;45394;-83
2021/09/08 13:20:44;;;;;;;;;12.50;12.50;;;;;;;;5067238;28;45471;-82
2021/09/08 13:23:10;;;;;;;;;14.25;14.00;;;;;;;;5070854;28;45919;-81
2021/09/08 13:25:36;;;;;;;;;14.00;14.00;;;;;;;;5068954;28;45556;-83
2021/09/08 13:28:01;;;;;;;;;18.00;16.00;;;;;;;;5067260;27;45344;-83
2021/09/08 13:30:26;;;;;;;;;13.50;12.00;;;;;;;;5074243;27;45456;-83
2021/09/08 13:32:52;;;;;;;;;16.25;14.50;;;;;;;;5063815;27;45434;-82
2021/09/08 13:35:17;;;;;;;;;13.50;13.25;;;;;;;;5093485;27;45517;-82
2021/09/08 13:37:42;;;;;;;;;14.25;14.25;;;;;;;;5084899;27;45408;-82
2021/09/08 13:40:08;;;;;;;;;18.50;16.75;;;;;;;;5067559;27;45455;-82
2021/09/08 13:42:33;;;;;;;;;18.50;16.25;;;;;;;;5060724;27;45403;-83
2021/09/08 13:44:58;;;;;;;;;20.25;19.75;;;;;;;;5087286;27;45445;-82
2021/09/08 13:47:24;;;;;;;;;18.00;15.25;;;;;;;;5092344;27;45168;-83
2021/09/08 13:49:49;;;;;;;;;13.75;13.75;;;;;;;;5066580;27;45582;-83
2021/09/08 13:52:14;;;;;;;;;17.00;15.00;;;;;;;;5085121;27;45345;-82
2021/09/08 13:54:40;;;;;;;;;18.25;16.25;;;;;;;;5078374;27;45374;-83
2021/09/08 13:57:06;;;;;;;;;13.75;13.75;;;;;;;;5084050;27;45355;-83
2021/09/08 13:59:31;;;;;;;;;16.25;16.25;;;;;;;;5069452;28;45240;-82
2021/09/08 14:01:57;;;;;;;;;20.25;19.00;;;;;;;;5061369;28;45351;-83
2021/09/08 14:04:22;;;;;;;;;18.25;17.25;;;;;;;;5061006;28;45339;-83
2021/09/08 14:06:47;;;;;;;;;20.50;18.25;;;;;;;;5061003;28;45378;-82
2021/09/08 14:09:13;;;;;;;;;22.75;21.25;;;;;;;;5061106;28;45290;-83
2021/09/08 14:11:38;;;;;;;;;18.00;17.00;;;;;;;;5061093;28;45406;-82